South, Virginia
Current Conditions -  °F | °C
As of 11:52 AM on Sunday 21 Dec 2014 (Local Time) from KDCA Reporting Station
Broken Clouds Broken Clouds  
Wind Chill: 42°   Ceiling: 6500
Heat Index: 42°   Visibility: 10mi
Dew Point: 24°   Wind: 3mph
Humidity: 49%   Direction: 50°NE
Pressure: 30.36"   Gusts: NA
Location:  38.8653°N, 77.09°W
Report Text: KDCA 211652Z 05003KT 10SM BKN065 06/M04 A3036 RMK AO2 SLP279 T00561044
Loading
Personal Weather Stations






























Interactive Weather Map New forecast layout! Learn more

10-Day Weather Forecast

Advertisements
Track Severe Weather on mobile